Pocahontas, Mississippi
Current Conditions -  °F | °C
As of 7:53 AM on Saturday 22 Nov 2014 (Local Time) from KHKS Reporting Station
Few Clouds Few Clouds  
Wind Chill: 54°   Ceiling: Unl
Heat Index: 54°   Visibility: 10mi
Dew Point: 42°   Wind: 8mph
Humidity: 64%   Direction: 130°SE
Pressure: 30.27"   Gusts: NA
Location:  32.47°N, 90.29°W
Report Text: KHKS 221353Z 13007KT 10SM FEW110 12/06 A3027 RMK AO2 SLP244 T01220056
Loading
Personal Weather Stations






























Interactive Weather Map New forecast layout! Learn more

10-Day Weather Forecast

Advertisements
Track Severe Weather on mobile